KAEJ

Details ICAO KAEJ
Name CENTRAL COLORADO RGNL
Region United States
Timezone America/Denver (UTC-7.0)
Plans Departing 2
Arriving 6
Stats Elevation 7,946 ft / 2,422 m (AMSL)
Location 38.814150° -106.120694°
Runways 1
Magnetic Variation 8.697° E
Sunrise 2017-12-14 14:16:35 UTC / 2017-12-14 07:16:35 Local
Sunset 2017-12-14 23:44:49 UTC / 2017-12-14 16:44:49 Local
Advertisement - Login to hide

Runways

ID Width Length Bearing (true) Bearing (mag) Surface Threshold Offset Overrun Length
15 75 ft / 23 m 8,313 ft / 2,534 m 162.22° 153.52° Asphalt 0 ft / 0 m 0 ft / 0 m
33 75 ft / 23 m 8,313 ft / 2,534 m 342.23° 333.53° Asphalt 0 ft / 0 m 0 ft / 0 m

Map

Weather


0- 5 10 15 20 25 30 35+ Temperature / ° C

Clouds and Precipitation
Forecast for 2017-12-14 18:00 UTC. Updated 2 hours ago

Ground ~20,000 ft ~40,000 ft Winds

METAR

KAEJ 141455Z AUTO 26003KT 10SM SCT018 SCT024 SCT039 M06/M07 A3018 RMK AO2 T10601074

TAF

Not found

Frequencies

Recorded 132.92 MHz AWOS 3
Unicom 122.80 MHz CTAF/UNICOM
Warning: Do not use this data for real-world aviation or navigation. No guarantee of current accuracy is given.